الصفحة الرئيسية
METAR-TAF:

METAR-TAF

مطار :

Monte Scuro, إيطاليا

دائرة عرض: 39-20N, خط طول: 016-24E, ارتفاع: 1710 متر

مراقبة الطقس الحالي

تاريخ ووقت الإصدار 1ساعة و 8 دقيقة قبل الساعة 03:55UTC
ريح 8 عقدة من الغرب
درجة الحرارة 2°درجة مئوية
الرطوبة 100%
ضغط 1010 hPa
الرؤية أقل من 50 مترا
ثلوج خفيفة, ضباب

METAR: LIBQ 290355Z 27008KT 0000 -SN FG VV/// 02/02 Q1010 RMK MON INVIS VAL INVIS VIS MIN 0000

زمن: 06:03 (05:03 UTC)


TAF: مفقودة

أرصاد الطقس والتوقعات من أكثر من 4000 مطار (تقارير الطقس للمطار METAR والتنبؤ بالطقس بالمطارTAF).

المحطات المتاحة هي النقط الصفراء والحمراء على الخريطة.

حرك المؤشر فوق النقطة لمعرفة اسم المحطة.

ثم انقر لمعرفة أرصاد وتوقعات الطقس.

لتغيير الخارطة: اضغط على الأزرار الخضراء مع رمز الصليب الأسود للتكبير. على الزر الأخضر مع شرطة للتصغير، أو على الأسهم الخضراء للخرائط المجاورة.


METAR-TAF: